Time;durP1;ratioP1;P1;durP2;ratioP2;P2;SDS_P1;SDS_P2;PMS_P1;PMS_P2;Temp;Humidity;BMP_temperature;BMP_pressure;BME280_temperature;BME280_humidity;BME280_pressure;Samples;Min_cycle;Max_cycle;Signal;HPM_P1;HPM_P2
2022/09/24 00:01:17;;;;;;;44.15;20.50;;;14.20;1.00;;;;;;5033908;28;20758;-79
2022/09/24 00:03:49;;;;;;;29.27;18.20;;;14.20;1.00;;;;;;5028489;28;20645;-79
2022/09/24 00:06:17;;;;;;;31.33;19.73;;;14.20;1.00;;;;;;5028514;28;20428;-79
2022/09/24 00:08:44;;;;;;;37.20;20.10;;;14.10;1.00;;;;;;5028726;28;20022;-79
2022/09/24 00:11:11;;;;;;;32.03;19.63;;;14.20;1.00;;;;;;5042100;28;20044;-80
2022/09/24 00:13:37;;;;;;;34.70;20.25;;;14.10;1.00;;;;;;5028774;28;20022;-79
2022/09/24 00:16:06;;;;;;;43.63;21.23;;;14.30;1.00;;;;;;5033735;28;20026;-79
2022/09/24 00:18:32;;;;;;;33.95;19.60;;;14.20;1.00;;;;;;5023056;28;20033;-80
2022/09/24 00:20:58;;;;;;;37.97;20.25;;;14.30;1.00;;;;;;5021611;28;20125;-80
2022/09/24 00:23:24;;;;;;;35.67;20.02;;;14.20;1.00;;;;;;5022262;28;20030;-80
2022/09/24 00:28:35;;;;;;;34.65;19.85;;;14.30;1.00;;;;;;5034621;28;20246;-79
2022/09/24 00:31:06;;;;;;;37.70;20.15;;;14.20;1.00;;;;;;5038657;28;20026;-79
2022/09/24 00:33:33;;;;;;;41.05;21.20;;;14.20;1.00;;;;;;5032740;28;20074;-79
2022/09/24 00:36:01;;;;;;;40.20;21.80;;;14.20;1.00;;;;;;5025501;28;20061;-79
2022/09/24 00:38:28;;;;;;;40.28;21.67;;;14.30;1.00;;;;;;5023266;28;20025;-79
2022/09/24 00:40:54;;;;;;;39.78;21.42;;;14.20;1.00;;;;;;5032363;28;20029;-80
2022/09/24 00:43:35;;;;;;;41.97;22.10;;;14.20;1.00;;;;;;5039254;28;20021;-79
2022/09/24 00:46:14;;;;;;;51.90;23.15;;;14.20;1.00;;;;;;5026558;28;20036;-78
2022/09/24 00:48:41;;;;;;;45.08;22.23;;;14.20;1.00;;;;;;5033445;28;20037;-79
2022/09/24 00:51:12;;;;;;;46.53;23.08;;;14.20;1.00;;;;;;5035234;28;20041;-79
2022/09/24 00:53:37;;;;;;;51.13;23.75;;;14.20;1.00;;;;;;5027151;28;20030;-79
2022/09/24 00:56:05;;;;;;;56.72;23.25;;;14.20;1.00;;;;;;5034016;28;20032;-79
2022/09/24 00:58:31;;;;;;;47.47;22.20;;;14.30;1.00;;;;;;5026867;28;20034;-79
2022/09/24 01:01:06;;;;;;;45.13;23.13;;;14.20;1.00;;;;;;5025681;28;20038;-79
2022/09/24 01:03:38;;;;;;;48.58;24.08;;;14.20;1.00;;;;;;5028677;28;20164;-79
2022/09/24 01:06:04;;;;;;;50.90;24.92;;;14.20;1.00;;;;;;5032517;28;20037;-79
2022/09/24 01:08:30;;;;;;;51.35;24.55;;;14.20;1.00;;;;;;5032549;28;20044;-79
2022/09/24 01:11:25;;;;;;;51.45;24.35;;;14.30;1.00;;;;;;5032841;28;20113;-79
2022/09/24 01:13:54;;;;;;;54.40;25.23;;;14.30;1.00;;;;;;5027565;28;20030;-79
2022/09/24 01:16:58;;;;;;;55.25;23.85;;;14.30;1.00;;;;;;5033934;28;20018;-79
2022/09/24 01:19:45;;;;;;;64.93;23.02;;;14.30;1.00;;;;;;4968598;29;20058;-79
2022/09/24 01:22:41;;;;;;;46.92;23.77;;;14.30;1.00;;;;;;4969990;28;20040;-79
2022/09/24 01:25:48;;;;;;;32.58;18.35;;;14.30;1.00;;;;;;5019866;28;20037;-80
2022/09/24 01:28:49;;;;;;;33.20;16.98;;;14.30;99.90;;;;;;5016261;28;20044;-80
2022/09/24 01:31:28;;;;;;;19.17;10.93;;;14.30;99.90;;;;;;5012110;28;20033;-79
2022/09/24 01:33:56;;;;;;;19.35;10.48;;;14.20;99.90;;;;;;5043299;28;20046;-79
2022/09/24 01:36:23;;;;;;;9.90;7.32;;;14.60;99.90;;;;;;5037767;28;20022;-80
2022/09/24 01:38:51;;;;;;;6.60;3.63;;;14.60;99.90;;;;;;5037074;28;20029;-80
2022/09/24 01:41:18;;;;;;;3.17;1.50;;;14.20;99.90;;;;;;5037594;28;20030;-80
2022/09/24 01:43:44;;;;;;;4.45;1.52;;;14.10;99.90;;;;;;5035711;28;20036;-80
2022/09/24 01:46:12;;;;;;;3.78;1.40;;;14.00;99.90;;;;;;5029403;28;20033;-80
2022/09/24 01:48:39;;;;;;;6.63;1.52;;;14.10;99.90;;;;;;5030493;28;20029;-80
2022/09/24 01:51:13;;;;;;;7.70;1.50;;;14.10;99.90;;;;;;5032268;28;20030;-80
2022/09/24 01:53:50;;;;;;;4.40;1.85;;;14.60;99.90;;;;;;5045014;28;20033;-79
2022/09/24 01:56:24;;;;;;;5.60;1.17;;;14.60;99.90;;;;;;5035953;28;20037;-80
2022/09/24 01:59:11;;;;;;;4.57;1.65;;;14.00;99.90;;;;;;5030834;28;20026;-80
2022/09/24 02:01:48;;;;;;;4.25;1.10;;;13.80;99.90;;;;;;5028160;28;20030;-80
2022/09/24 02:04:18;;;;;;;5.47;1.50;;;14.70;99.90;;;;;;5029803;28;20014;-80
2022/09/24 02:07:12;;;;;;;4.10;1.40;;;14.50;99.90;;;;;;5038007;28;20019;-80
2022/09/24 02:09:40;;;;;;;3.53;1.55;;;13.70;99.90;;;;;;5044796;28;20093;-80
2022/09/24 02:12:09;;;;;;;7.03;1.80;;;13.70;99.90;;;;;;5022198;28;20049;-80
2022/09/24 02:14:43;;;;;;;5.75;1.80;;;14.10;99.90;;;;;;5034683;28;20037;-80
2022/09/24 02:17:09;;;;;;;11.95;2.50;;;14.20;99.90;;;;;;5047740;28;20034;-81
2022/09/24 02:19:38;;;;;;;4.97;1.67;;;14.30;99.90;;;;;;5033924;28;20021;-80
2022/09/24 02:22:06;;;;;;;5.82;1.75;;;14.40;99.90;;;;;;5032630;28;20105;-80
2022/09/24 02:24:35;;;;;;;9.95;2.25;;;13.60;99.90;;;;;;5041745;28;20010;-80
2022/09/24 02:27:00;;;;;;;6.78;1.77;;;14.40;99.90;;;;;;5040836;28;20026;-80
2022/09/24 02:29:26;;;;;;;6.57;2.00;;;13.80;99.90;;;;;;5023451;28;20044;-80
2022/09/24 02:31:54;;;;;;;7.57;2.05;;;14.20;99.90;;;;;;5027078;28;20113;-80
2022/09/24 02:34:28;;;;;;;8.40;1.83;;;14.30;99.90;;;;;;5033184;28;20066;-80
2022/09/24 02:36:59;;;;;;;9.85;2.17;;;14.80;99.90;;;;;;5032964;28;20061;-80
2022/09/24 02:39:25;;;;;;;7.63;2.35;;;14.80;99.90;;;;;;5031389;28;20262;-80
2022/09/24 02:41:52;;;;;;;6.22;2.00;;;13.60;99.90;;;;;;5033005;28;20064;-81
2022/09/24 02:44:18;;;;;;;7.93;2.20;;;14.60;99.90;;;;;;5032498;28;20016;-80
2022/09/24 02:46:45;;;;;;;4.45;1.90;;;13.70;99.90;;;;;;5045595;28;20088;-81
2022/09/24 02:49:13;;;;;;;6.00;1.77;;;14.40;99.90;;;;;;5018968;28;20030;-81
2022/09/24 02:51:39;;;;;;;7.60;1.95;;;14.20;99.90;;;;;;5035793;28;20029;-80
2022/09/24 02:54:06;;;;;;;9.43;2.22;;;14.40;99.90;;;;;;5035908;28;20045;-81
2022/09/24 02:56:31;;;;;;;8.73;1.95;;;14.40;99.90;;;;;;5032646;28;20014;-80
2022/09/24 02:58:57;;;;;;;7.55;1.60;;;13.90;99.90;;;;;;5048450;28;20053;-80
2022/09/24 03:01:23;;;;;;;9.95;1.65;;;14.10;99.90;;;;;;5037704;28;20053;-80
2022/09/24 03:03:50;;;;;;;8.63;1.88;;;13.70;99.90;;;;;;5042382;28;20026;-81
2022/09/24 03:06:15;;;;;;;7.25;1.92;;;13.50;99.90;;;;;;5041698;28;20105;-81
2022/09/24 03:08:42;;;;;;;8.70;2.35;;;13.70;99.90;;;;;;5040845;28;20035;-79
2022/09/24 03:11:09;;;;;;;11.85;2.33;;;14.00;99.90;;;;;;5034188;28;20034;-81
2022/09/24 03:13:36;;;;;;;9.65;1.60;;;13.50;99.90;;;;;;5042875;28;20018;-80
2022/09/24 03:16:02;;;;;;;9.02;2.40;;;13.60;99.90;;;;;;5037823;28;20114;-80
2022/09/24 03:18:27;;;;;;;7.78;2.45;;;13.70;99.90;;;;;;5039733;28;20014;-80
2022/09/24 03:20:58;;;;;;;5.40;1.52;;;14.00;99.90;;;;;;5031950;28;20029;-80
2022/09/24 03:23:24;;;;;;;5.05;1.25;;;13.60;99.90;;;;;;5029314;28;20036;-80
2022/09/24 03:25:50;;;;;;;9.77;1.80;;;13.50;99.90;;;;;;5024707;28;20026;-80
2022/09/24 03:28:16;;;;;;;8.73;1.60;;;13.60;99.90;;;;;;5034405;28;20105;-80
2022/09/24 03:31:01;;;;;;;7.32;1.98;;;13.80;99.90;;;;;;5027664;28;20018;-79
2022/09/24 03:33:32;;;;;;;10.27;2.17;;;13.70;99.90;;;;;;5032005;28;20058;-79
2022/09/24 03:36:07;;;;;;;8.38;2.53;;;14.00;99.90;;;;;;5037886;28;20100;-79
2022/09/24 03:38:34;;;;;;;4.72;1.67;;;13.80;99.90;;;;;;5026677;28;20078;-79
2022/09/24 03:41:00;;;;;;;8.80;1.90;;;13.50;99.90;;;;;;5038481;28;20022;-80
2022/09/24 03:43:27;;;;;;;4.75;1.30;;;13.40;99.90;;;;;;5030207;28;20026;-80
2022/09/24 03:45:53;;;;;;;11.02;1.48;;;13.40;99.90;;;;;;5030532;28;20026;-80
2022/09/24 03:48:20;;;;;;;4.40;1.52;;;13.80;99.90;;;;;;5025351;28;20030;-79
2022/09/24 03:50:46;;;;;;;5.82;1.52;;;13.60;99.90;;;;;;5030465;28;20030;-80
2022/09/24 03:53:13;;;;;;;7.20;1.25;;;13.80;99.90;;;;;;5025980;28;20032;-79
2022/09/24 03:55:58;;;;;;;3.53;1.13;;;13.60;99.90;;;;;;5037659;28;20022;-78
2022/09/24 03:58:24;;;;;;;7.38;1.42;;;13.30;99.90;;;;;;5034969;28;20033;-80
2022/09/24 04:00:53;;;;;;;10.88;2.35;;;13.70;99.90;;;;;;5026730;28;20018;-80
2022/09/24 04:03:20;;;;;;;8.13;1.38;;;13.20;99.90;;;;;;5034975;28;20029;-80
2022/09/24 04:05:46;;;;;;;8.10;1.55;;;13.40;99.90;;;;;;5038661;28;20040;-79
2022/09/24 04:08:11;;;;;;;8.32;1.42;;;13.40;99.90;;;;;;5034328;28;20049;-80
2022/09/24 04:10:37;;;;;;;8.25;1.63;;;13.40;99.90;;;;;;5033672;28;20105;-79
2022/09/24 04:13:02;;;;;;;13.52;1.48;;;12.90;99.90;;;;;;5032865;28;20033;-79
2022/09/24 04:15:28;;;;;;;7.25;1.60;;;12.90;99.90;;;;;;5042731;28;20030;-80
2022/09/24 04:17:57;;;;;;;10.85;1.52;;;13.30;99.90;;;;;;5039547;28;20030;-79
2022/09/24 04:20:25;;;;;;;11.48;1.48;;;12.80;99.90;;;;;;5026942;28;20018;-80
2022/09/24 04:22:55;;;;;;;10.98;1.90;;;12.90;99.90;;;;;;5044656;28;20113;-79
2022/09/24 04:25:22;;;;;;;6.78;2.10;;;13.20;99.90;;;;;;5024957;28;20026;-80
2022/09/24 04:27:56;;;;;;;7.57;1.05;;;13.10;99.90;;;;;;5028471;28;20034;-79
2022/09/24 04:30:23;;;;;;;7.95;1.33;;;13.00;99.90;;;;;;5023434;28;20037;-79
2022/09/24 04:32:50;;;;;;;10.07;1.30;;;13.10;99.90;;;;;;5039116;28;20038;-79
2022/09/24 04:35:17;;;;;;;8.15;1.90;;;12.90;99.90;;;;;;5042504;28;20020;-79
2022/09/24 04:37:43;;;;;;;10.85;1.58;;;12.70;99.90;;;;;;5039087;28;20033;-79
2022/09/24 04:40:11;;;;;;;13.77;1.70;;;12.90;99.90;;;;;;5023704;28;20042;-79
2022/09/24 04:42:37;;;;;;;9.88;1.55;;;12.50;99.90;;;;;;5029378;28;20029;-79
2022/09/24 04:45:04;;;;;;;11.48;1.55;;;12.60;99.90;;;;;;5030734;28;20022;-79
2022/09/24 04:47:30;;;;;;;9.93;1.55;;;12.80;99.90;;;;;;5037432;28;20018;-79
2022/09/24 04:49:55;;;;;;;7.30;1.48;;;12.90;99.90;;;;;;5039290;28;20546;-79
2022/09/24 04:52:24;;;;;;;9.65;1.67;;;12.50;99.90;;;;;;5031536;28;20033;-79
2022/09/24 04:54:53;;;;;;;9.57;1.43;;;12.60;99.90;;;;;;5032060;28;20046;-79
2022/09/24 04:57:18;;;;;;;5.22;1.45;;;12.60;99.90;;;;;;5028188;28;20022;-79
2022/09/24 04:59:44;;;;;;;8.35;1.55;;;12.70;99.90;;;;;;5030660;28;20032;-79
2022/09/24 05:02:10;;;;;;;9.27;1.50;;;12.70;99.90;;;;;;5029482;28;20055;-79
2022/09/24 05:04:36;;;;;;;6.10;1.30;;;12.70;99.90;;;;;;5032236;28;20014;-79
2022/09/24 05:07:03;;;;;;;6.60;1.35;;;12.60;99.90;;;;;;5032625;28;20030;-79
2022/09/24 05:09:31;;;;;;;5.20;1.10;;;12.70;99.90;;;;;;5027178;28;20026;-80
2022/09/24 05:11:57;;;;;;;8.18;1.60;;;12.40;99.90;;;;;;5036591;28;20116;-79
2022/09/24 05:14:23;;;;;;;8.82;1.55;;;12.60;99.90;;;;;;5017148;28;20045;-79
2022/09/24 05:16:50;;;;;;;8.55;1.20;;;12.40;99.90;;;;;;5022943;28;20022;-80
2022/09/24 05:19:15;;;;;;;8.20;1.38;;;12.40;99.90;;;;;;5020851;28;20038;-80
2022/09/24 05:21:41;;;;;;;6.85;1.30;;;12.50;99.90;;;;;;5028276;28;20499;-80
2022/09/24 05:24:06;;;;;;;10.90;1.63;;;12.40;99.90;;;;;;5024529;28;20053;-80
2022/09/24 05:29:17;;;;;;;3.28;1.10;;;12.60;99.90;;;;;;5049753;28;20116;-80
2022/09/24 05:31:43;;;;;;;5.30;1.67;;;12.70;99.90;;;;;;5033806;28;20045;-79
2022/09/24 05:34:09;;;;;;;9.38;1.20;;;12.70;99.90;;;;;;5032948;28;20055;-80
2022/09/24 05:36:35;;;;;;;6.45;1.20;;;12.40;99.90;;;;;;5019766;28;20050;-79
2022/09/24 05:39:02;;;;;;;7.13;1.42;;;12.30;99.90;;;;;;5024585;28;20036;-81
2022/09/24 05:41:27;;;;;;;6.80;1.52;;;12.60;99.90;;;;;;5033939;28;20018;-80
2022/09/24 05:43:55;;;;;;;7.80;1.27;;;12.60;99.90;;;;;;5042028;28;20013;-79
2022/09/24 05:46:21;;;;;;;7.10;1.10;;;12.60;99.90;;;;;;5043261;28;20010;-81
2022/09/24 05:48:48;;;;;;;5.35;1.25;;;12.40;99.90;;;;;;5039611;28;20291;-80
2022/09/24 05:51:14;;;;;;;5.55;1.23;;;12.70;99.90;;;;;;5039116;28;20251;-81
2022/09/24 05:53:39;;;;;;;15.32;5.07;;;12.50;99.90;;;;;;5039568;28;20077;-79
2022/09/24 05:56:05;;;;;;;8.70;1.50;;;12.40;99.90;;;;;;5027715;28;20020;-80
2022/09/24 05:58:31;;;;;;;3.80;1.60;;;12.60;99.90;;;;;;5047587;28;20037;-79
2022/09/24 06:00:59;;;;;;;13.35;7.20;;;12.50;99.90;;;;;;5042595;28;20085;-79
2022/09/24 06:03:25;;;;;;;6.88;2.10;;;12.60;99.90;;;;;;5035987;28;20019;-80
2022/09/24 06:05:51;;;;;;;7.88;2.60;;;12.60;99.90;;;;;;5040295;28;20411;-80
2022/09/24 06:08:18;;;;;;;6.03;2.25;;;12.70;99.90;;;;;;5034980;28;20034;-79
2022/09/24 06:10:46;;;;;;;4.95;1.27;;;12.70;99.90;;;;;;5046818;28;20025;-81
2022/09/24 06:13:13;;;;;;;5.32;1.23;;;12.80;99.90;;;;;;5045377;28;20048;-80
2022/09/24 06:15:41;;;;;;;7.93;1.38;;;12.70;99.90;;;;;;5034857;28;20018;-79
2022/09/24 06:18:07;;;;;;;4.13;0.90;;;12.60;99.90;;;;;;5034583;28;20053;-79
2022/09/24 06:20:33;;;;;;;5.55;1.13;;;12.50;99.90;;;;;;5038211;28;20069;-79
2022/09/24 06:22:58;;;;;;;8.30;1.27;;;12.90;99.90;;;;;;5033507;28;20049;-79
2022/09/24 06:25:25;;;;;;;4.30;1.70;;;12.70;99.90;;;;;;5032947;28;20037;-80
2022/09/24 06:27:59;;;;;;;4.57;1.25;;;12.80;99.90;;;;;;5030342;28;20030;-79
2022/09/24 06:30:31;;;;;;;4.25;1.35;;;13.20;99.90;;;;;;5035988;28;20045;-79
2022/09/24 06:33:04;;;;;;;6.25;1.33;;;13.30;99.90;;;;;;5031369;28;20038;-79
2022/09/24 06:35:33;;;;;;;5.15;1.38;;;13.40;99.90;;;;;;5031121;28;20026;-79
2022/09/24 06:37:59;;;;;;;5.50;1.00;;;13.10;99.90;;;;;;5029985;28;20018;-79
2022/09/24 06:40:24;;;;;;;6.82;1.20;;;13.20;99.90;;;;;;5046511;28;20029;-79
2022/09/24 06:42:51;;;;;;;7.10;1.15;;;13.40;99.90;;;;;;5035822;28;20042;-80
2022/09/24 06:45:18;;;;;;;8.65;1.40;;;13.40;99.90;;;;;;5035140;28;20073;-79
2022/09/24 06:47:44;;;;;;;5.30;0.75;;;13.50;99.90;;;;;;5042322;28;20452;-80
2022/09/24 06:50:10;;;;;;;5.13;1.10;;;13.30;99.90;;;;;;5041654;28;20036;-80
2022/09/24 06:52:36;;;;;;;10.70;1.83;;;13.70;99.90;;;;;;5038004;28;20034;-80
2022/09/24 06:55:01;;;;;;;11.38;1.35;;;13.70;99.90;;;;;;5043736;28;20006;-79
2022/09/24 06:57:27;;;;;;;6.68;1.15;;;13.70;99.90;;;;;;5045488;28;20018;-78
2022/09/24 06:59:52;;;;;;;6.57;1.17;;;13.60;99.90;;;;;;5042396;28;20022;-80
2022/09/24 07:02:18;;;;;;;3.83;0.77;;;13.70;99.90;;;;;;5036299;28;20038;-80
2022/09/24 07:04:44;;;;;;;7.30;1.42;;;13.80;99.90;;;;;;5035301;28;20037;-80
2022/09/24 07:07:28;;;;;;;8.27;1.33;;;13.90;99.90;;;;;;5038483;28;20059;-80
2022/09/24 07:09:54;;;;;;;9.50;1.27;;;13.90;99.90;;;;;;5044142;28;20018;-81
2022/09/24 07:12:20;;;;;;;6.05;1.42;;;14.00;99.90;;;;;;5040462;28;20021;-81
2022/09/24 07:14:45;;;;;;;4.85;0.60;;;13.80;99.90;;;;;;5043625;28;20032;-79
2022/09/24 07:17:11;;;;;;;5.68;1.13;;;14.00;99.90;;;;;;5033611;28;20029;-81
2022/09/24 07:19:37;;;;;;;7.75;1.73;;;13.90;99.90;;;;;;5037170;28;20034;-80
2022/09/24 07:22:03;;;;;;;8.05;1.20;;;14.10;99.90;;;;;;5048486;28;20045;-79
2022/09/24 07:24:29;;;;;;;7.78;1.30;;;14.40;99.90;;;;;;5044468;28;20093;-80
2022/09/24 07:26:54;;;;;;;5.13;1.27;;;14.30;99.90;;;;;;5045115;28;20029;-80
2022/09/24 07:29:20;;;;;;;5.10;0.98;;;14.50;99.90;;;;;;5040954;28;20036;-80
2022/09/24 07:31:46;;;;;;;3.58;0.90;;;14.60;99.90;;;;;;5041992;28;20033;-80
2022/09/24 07:34:13;;;;;;;4.90;1.05;;;14.70;99.90;;;;;;5027919;28;20101;-79
2022/09/24 07:36:39;;;;;;;2.95;0.73;;;14.80;99.90;;;;;;5042005;28;20002;-79
2022/09/24 07:39:05;;;;;;;4.60;0.70;;;14.70;99.90;;;;;;5041603;28;20044;-81
2022/09/24 07:41:30;;;;;;;6.88;1.00;;;15.40;99.90;;;;;;5027432;28;20086;-79
2022/09/24 07:43:56;;;;;;;4.28;1.25;;;17.00;99.90;;;;;;5035500;28;20033;-79
2022/09/24 07:46:23;;;;;;;1.77;0.60;;;16.80;99.90;;;;;;5046132;28;20033;-80
2022/09/24 07:48:48;;;;;;;5.07;0.85;;;17.20;99.90;;;;;;5035676;28;20013;-80
2022/09/24 07:51:15;;;;;;;6.55;1.20;;;18.50;99.90;;;;;;5022903;28;20026;-80
2022/09/24 07:53:40;;;;;;;6.38;0.60;;;17.90;99.90;;;;;;5026937;28;20120;-78
2022/09/24 07:56:06;;;;;;;5.95;0.63;;;17.50;96.80;;;;;;5026662;28;20233;-82
2022/09/24 07:58:32;;;;;;;7.20;1.75;;;16.70;31.50;;;;;;5041981;28;20036;-82
2022/09/24 08:00:58;;;;;;;8.18;1.50;;;16.70;29.10;;;;;;5048507;28;20029;-82
2022/09/24 08:03:24;;;;;;;6.05;1.38;;;16.50;14.60;;;;;;5028729;28;20019;-82
2022/09/24 08:05:55;;;;;;;6.38;1.00;;;16.50;1.00;;;;;;5025822;28;20026;-82
2022/09/24 08:08:20;;;;;;;3.83;0.65;;;16.60;1.00;;;;;;5046454;28;20029;-83
2022/09/24 08:10:46;;;;;;;7.95;1.08;;;16.80;99.90;;;;;;5045978;28;20022;-82
2022/09/24 08:13:12;;;;;;;1.15;0.40;;;16.90;1.00;;;;;;5032758;28;20095;-82
2022/09/24 08:15:38;;;;;;;5.22;0.80;;;17.00;99.90;;;;;;5029188;28;20026;-82
2022/09/24 08:18:04;;;;;;;2.90;0.70;;;17.20;99.90;;;;;;5043050;28;20028;-82
2022/09/24 08:20:37;;;;;;;3.30;0.65;;;17.00;99.90;;;;;;5032777;28;20081;-82
2022/09/24 08:23:05;;;;;;;5.32;0.80;;;17.30;99.90;;;;;;5046027;28;20033;-81
2022/09/24 08:25:31;;;;;;;1.75;0.40;;;17.60;99.90;;;;;;5040338;28;20013;-82
2022/09/24 08:28:04;;;;;;;5.50;1.00;;;17.50;99.90;;;;;;5028199;28;20113;-81
2022/09/24 08:30:31;;;;;;;2.95;0.60;;;17.70;99.90;;;;;;5020709;28;20544;-81
2022/09/24 08:32:57;;;;;;;5.10;1.05;;;17.60;99.90;;;;;;5042919;28;20009;-82
2022/09/24 08:35:23;;;;;;;3.47;0.60;;;18.00;99.90;;;;;;5030622;28;20022;-82
2022/09/24 08:37:48;;;;;;;6.45;1.42;;;17.80;99.90;;;;;;5022714;28;20048;-82
2022/09/24 08:40:22;;;;;;;6.75;0.90;;;17.20;99.90;;;;;;5024895;28;20041;-81
2022/09/24 08:43:11;;;;;;;4.18;0.60;;;17.00;99.90;;;;;;5020836;28;20026;-81
2022/09/24 08:48:41;;;;;;;2.10;0.50;;;16.70;99.90;;;;;;5030795;28;20037;-81
2022/09/24 08:51:12;;;;;;;3.00;0.68;;;16.40;99.90;;;;;;5028058;28;20025;-81
2022/09/24 08:54:05;;;;;;;6.38;1.27;;;16.30;99.90;;;;;;5012200;28;20017;-81
2022/09/24 08:56:34;;;;;;;3.50;0.60;;;16.30;99.90;;;;;;5026665;28;20040;-80
2022/09/24 08:59:32;;;;;;;5.05;0.60;;;16.10;99.90;;;;;;5015161;28;20030;-81
2022/09/24 09:02:33;;;;;;;5.97;0.95;;;16.10;99.90;;;;;;5015042;28;20045;-81
2022/09/24 09:05:08;;;;;;;3.60;0.80;;;16.00;99.90;;;;;;5017634;28;20033;-80
2022/09/24 09:07:54;;;;;;;3.35;0.70;;;15.90;99.90;;;;;;5007900;28;20027;-78
2022/09/24 09:10:39;;;;;;;3.47;0.57;;;15.90;99.90;;;;;;5022638;28;20034;-78
2022/09/24 09:13:22;;;;;;;5.10;1.20;;;15.80;99.90;;;;;;5016583;28;20068;-80
2022/09/24 09:16:16;;;;;;;6.05;0.90;;;15.70;99.90;;;;;;5022084;28;20084;-80
2022/09/24 09:18:43;;;;;;;4.68;0.95;;;15.80;99.90;;;;;;5022465;28;20022;-80
2022/09/24 09:21:16;;;;;;;4.47;0.47;;;16.00;99.90;;;;;;5024361;28;20025;-81
2022/09/24 09:23:48;;;;;;;3.40;0.73;;;16.00;99.90;;;;;;5013257;28;20032;-79
2022/09/24 09:26:17;;;;;;;6.25;0.80;;;16.10;99.90;;;;;;5023456;28;20018;-79
2022/09/24 09:28:43;;;;;;;6.47;1.00;;;16.10;99.90;;;;;;5011626;28;20358;-78
2022/09/24 09:31:27;;;;;;;10.13;1.23;;;16.30;99.90;;;;;;4998828;28;20462;-79
2022/09/24 09:34:14;;;;;;;1.95;0.73;;;16.50;99.90;;;;;;5017587;28;20100;-79
2022/09/24 09:36:52;;;;;;;5.93;0.90;;;16.70;99.90;;;;;;5018434;28;20036;-78
2022/09/24 09:39:27;;;;;;;5.43;0.90;;;17.00;99.90;;;;;;5006920;28;20027;-77
2022/09/24 09:42:28;;;;;;;3.97;0.60;;;17.30;99.90;;;;;;5003030;28;20077;-77
2022/09/24 09:44:55;;;;;;;3.95;1.27;;;17.60;99.90;;;;;;5007209;28;20468;-78
2022/09/24 09:47:36;;;;;;;3.47;0.80;;;17.40;99.90;;;;;;5010285;28;20076;-80
2022/09/24 09:50:05;;;;;;;5.20;0.80;;;17.10;99.90;;;;;;5022768;28;20388;-80
2022/09/24 09:52:37;;;;;;;2.25;0.70;;;17.30;99.90;;;;;;5033442;28;20053;-79
2022/09/24 09:55:04;;;;;;;5.53;1.08;;;17.60;99.90;;;;;;5016067;28;20018;-80
2022/09/24 09:57:30;;;;;;;2.92;0.50;;;18.70;99.90;;;;;;5006784;28;20026;-79
2022/09/24 09:59:56;;;;;;;6.10;0.90;;;18.60;99.90;;;;;;5002852;28;20028;-79
2022/09/24 10:02:32;;;;;;;3.50;0.60;;;19.10;99.90;;;;;;5017694;28;20058;-80
2022/09/24 10:05:00;;;;;;;9.07;1.15;;;18.40;99.90;;;;;;5012352;28;20030;-79
2022/09/24 10:07:26;;;;;;;2.50;0.57;;;17.60;99.90;;;;;;5022341;28;20021;-80
2022/09/24 10:10:15;;;;;;;2.55;0.60;;;17.60;99.90;;;;;;5018059;28;20044;-79
2022/09/24 10:12:41;;;;;;;3.45;0.77;;;18.20;99.90;;;;;;5012701;28;20061;-80
2022/09/24 10:15:24;;;;;;;2.50;0.30;;;18.30;99.90;;;;;;5030309;28;20026;-81
2022/09/24 10:17:53;;;;;;;4.75;0.95;;;18.70;99.90;;;;;;5020990;28;20033;-80
2022/09/24 10:20:30;;;;;;;3.08;1.15;;;18.10;99.90;;;;;;5017408;28;21558;-80
2022/09/24 10:22:57;;;;;;;3.28;0.60;;;18.00;99.90;;;;;;5013125;28;20120;-79
2022/09/24 10:25:28;;;;;;;4.25;0.98;;;19.00;99.90;;;;;;5024769;28;20048;-79
2022/09/24 10:31:11;;;;;;;8.15;0.98;;;20.90;99.90;;;;;;5013538;28;20033;-78
2022/09/24 10:33:49;;;;;;;4.18;0.77;;;19.90;99.90;;;;;;5012041;28;20057;-78
2022/09/24 10:36:21;;;;;;;6.72;1.08;;;20.10;99.90;;;;;;5004605;28;20040;-78
2022/09/24 10:38:48;;;;;;;2.25;0.40;;;20.20;99.90;;;;;;5009909;28;20033;-78
2022/09/24 10:41:24;;;;;;;2.15;0.52;;;20.20;99.90;;;;;;4997099;28;20077;-78
2022/09/24 10:43:51;;;;;;;3.45;0.95;;;20.30;99.90;;;;;;5013829;28;20101;-78
2022/09/24 10:46:30;;;;;;;4.70;0.73;;;20.40;99.90;;;;;;5013318;28;20101;-78
2022/09/24 10:49:19;;;;;;;2.78;0.40;;;20.00;99.90;;;;;;5013986;28;20026;-78
2022/09/24 10:51:57;;;;;;;2.85;0.63;;;19.80;99.90;;;;;;5024692;28;20026;-78
2022/09/24 10:54:48;;;;;;;5.13;1.13;;;19.30;99.90;;;;;;5012386;28;20037;-78
2022/09/24 10:57:40;;;;;;;2.75;0.40;;;19.40;99.90;;;;;;5007027;28;20026;-78
2022/09/24 11:00:20;;;;;;;4.38;0.60;;;19.50;99.90;;;;;;4996690;28;20026;-80
2022/09/24 11:03:23;;;;;;;4.45;0.60;;;19.40;99.90;;;;;;5005842;28;20049;-79
2022/09/24 11:05:59;;;;;;;2.50;0.68;;;18.90;99.90;;;;;;5013466;28;20029;-78
2022/09/24 11:08:50;;;;;;;3.45;0.70;;;18.70;99.90;;;;;;5004676;28;20074;-78
2022/09/24 11:11:30;;;;;;;2.08;0.80;;;18.80;99.90;;;;;;4993479;28;20052;-79
2022/09/24 11:14:11;;;;;;;1.38;0.45;;;18.60;99.90;;;;;;5006312;28;20057;-79
2022/09/24 11:17:09;;;;;;;3.60;0.55;;;18.30;99.90;;;;;;4998132;28;20046;-80
2022/09/24 11:20:05;;;;;;;1.65;0.40;;;18.80;99.90;;;;;;4988976;28;20037;-80
2022/09/24 11:22:52;;;;;;;2.70;0.68;;;18.60;99.90;;;;;;4997742;28;21627;-80
2022/09/24 11:25:38;;;;;;;1.65;0.50;;;18.60;99.90;;;;;;5023446;28;20376;-80
2022/09/24 11:28:34;;;;;;;4.90;0.60;;;18.30;99.90;;;;;;5006747;28;20097;-79
2022/09/24 11:31:25;;;;;;;3.80;0.52;;;18.40;99.90;;;;;;5033825;28;20109;-79
2022/09/24 11:34:26;;;;;;;5.70;0.73;;;18.40;99.90;;;;;;4980524;28;20054;-78
2022/09/24 11:37:26;;;;;;;1.83;0.40;;;18.30;99.90;;;;;;5013174;28;20097;-79
2022/09/24 11:40:28;;;;;;;4.85;0.70;;;18.00;99.90;;;;;;5012239;28;20036;-79
2022/09/24 11:43:24;;;;;;;2.53;0.65;;;18.20;99.90;;;;;;5003489;28;20026;-81
2022/09/24 11:46:16;;;;;;;2.47;0.40;;;18.30;99.90;;;;;;5012918;28;20053;-80
2022/09/24 11:49:22;;;;;;;2.67;0.63;;;18.40;99.90;;;;;;4990502;28;20049;-78
2022/09/24 11:51:54;;;;;;;1.08;0.50;;;18.50;99.90;;;;;;4999087;28;20049;-79
2022/09/24 11:54:33;;;;;;;2.60;0.82;;;19.00;99.90;;;;;;5015736;28;20021;-79
2022/09/24 11:57:33;;;;;;;5.57;0.80;;;18.10;99.90;;;;;;5011285;28;20083;-79
2022/09/24 12:00:05;;;;;;;;;;;17.60;99.90;;;;;;4985285;28;20037;-79
2022/09/24 12:02:42;;;;;;;0.70;0.38;;;17.70;99.90;;;;;;5025338;28;19913;-79
2022/09/24 12:05:08;;;;;;;4.45;0.50;;;18.30;99.90;;;;;;5021482;28;20026;-78
2022/09/24 12:07:33;;;;;;;4.43;0.50;;;18.50;99.90;;;;;;5013113;28;20442;-79
2022/09/24 12:10:11;;;;;;;5.95;0.63;;;18.10;99.90;;;;;;5008379;28;20026;-78
2022/09/24 12:12:41;;;;;;;4.40;0.60;;;17.70;99.90;;;;;;5010688;28;20108;-78
2022/09/24 12:15:28;;;;;;;3.20;0.40;;;17.80;99.90;;;;;;5035667;28;20076;-79
2022/09/24 12:18:05;;;;;;;4.75;0.52;;;17.90;99.90;;;;;;5006876;28;20026;-79
2022/09/24 12:20:34;;;;;;;3.63;0.60;;;18.00;99.90;;;;;;5015693;28;20030;-78
2022/09/24 12:23:12;;;;;;;2.03;0.43;;;18.00;99.90;;;;;;5017332;28;20530;-79
2022/09/24 12:25:43;;;;;;;3.65;0.75;;;18.30;99.90;;;;;;5016130;28;20377;-79
2022/09/24 12:28:12;;;;;;;3.50;0.50;;;18.30;99.90;;;;;;5015503;28;20018;-80
2022/09/24 12:33:52;;;;;;;4.03;1.08;;;17.80;99.90;;;;;;5015311;28;20088;-79
2022/09/24 12:37:03;;;;;;;5.07;0.60;;;18.30;99.90;;;;;;4995939;28;20118;-79
2022/09/24 12:39:36;;;;;;;5.25;0.70;;;17.60;99.90;;;;;;4995610;28;20492;-79
2022/09/24 12:42:08;;;;;;;1.55;0.20;;;17.20;99.90;;;;;;5014709;28;20029;-79
2022/09/24 12:44:38;;;;;;;3.47;0.20;;;17.30;99.90;;;;;;5015427;28;20112;-79
2022/09/24 12:47:13;;;;;;;1.77;0.50;;;17.50;99.90;;;;;;5015372;28;20029;-79
2022/09/24 12:49:39;;;;;;;0.65;0.30;;;17.40;99.90;;;;;;5015362;28;20080;-79
2022/09/24 12:52:36;;;;;;;2.33;0.38;;;17.40;99.90;;;;;;5015086;28;20033;-79
2022/09/24 12:55:03;;;;;;;2.00;0.65;;;17.40;97.20;;;;;;5002223;28;20030;-79
2022/09/24 12:57:36;;;;;;;0.70;0.30;;;17.50;99.90;;;;;;5014924;28;20057;-79
2022/09/24 13:00:24;;;;;;;2.40;0.50;;;17.60;99.90;;;;;;5014997;28;20113;-79
2022/09/24 13:02:52;;;;;;;2.28;0.30;;;17.80;99.90;;;;;;5012977;28;20606;-79
2022/09/24 13:05:21;;;;;;;2.63;0.40;;;17.80;99.90;;;;;;5027164;28;20021;-80
2022/09/24 13:08:15;;;;;;;1.92;0.35;;;17.90;99.90;;;;;;5014865;28;20080;-78
2022/09/24 13:10:59;;;;;;;5.95;0.65;;;17.80;99.90;;;;;;5015110;28;20488;-79
2022/09/24 13:13:31;;;;;;;0.52;0.30;;;17.40;99.90;;;;;;5014795;28;20026;-78
2022/09/24 13:16:17;;;;;;;3.60;0.70;;;17.30;99.90;;;;;;5003612;28;20477;-79
2022/09/24 13:18:54;;;;;;;6.72;0.52;;;17.10;99.90;;;;;;5014248;28;20079;-79
2022/09/24 13:21:25;;;;;;;2.38;0.40;;;17.20;99.90;;;;;;5014498;28;20499;-79
2022/09/24 13:23:52;;;;;;;2.40;0.77;;;17.30;99.90;;;;;;5015502;28;20480;-79
2022/09/24 13:26:23;;;;;;;3.75;0.57;;;17.20;99.90;;;;;;5014531;28;20380;-79